sensor_id;sensor_type;location;lat;lon;timestamp;pressure;altitude;pressure_sealevel;temperature;humidity
49945;BME280;35838;49.134;9.212;2024-01-30T16:02:29;101324.19;;;7.14;100.00
49945;BME280;35838;49.134;9.212;2024-01-30T16:04:03;101323.19;;;7.10;100.00
49945;BME280;35838;49.134;9.212;2024-01-30T16:05:34;101320.56;;;7.09;100.00
49945;BME280;35838;49.134;9.212;2024-01-30T16:07:08;101326.41;;;7.03;100.00
49945;BME280;35838;49.134;9.212;2024-01-30T16:08:39;101326.00;;;6.90;100.00
49945;BME280;35838;49.134;9.212;2024-01-30T16:10:12;101326.09;;;6.94;100.00
49945;BME280;35838;49.134;9.212;2024-01-30T16:11:47;101329.41;;;6.89;100.00
49945;BME280;35838;49.134;9.212;2024-01-30T16:13:18;101323.19;;;6.84;100.00
49945;BME280;35838;49.134;9.212;2024-01-30T16:14:52;101331.63;;;6.79;100.00
49945;BME280;35838;49.134;9.212;2024-01-30T16:16:23;101322.19;;;6.79;100.00
49945;BME280;35838;49.134;9.212;2024-01-30T16:17:59;101323.03;;;6.80;100.00
49945;BME280;35838;49.134;9.212;2024-01-30T16:19:30;101324.03;;;6.83;100.00
49945;BME280;35838;49.134;9.212;2024-01-30T16:21:04;101326.72;;;6.86;100.00
49945;BME280;35838;49.134;9.212;2024-01-30T16:22:35;101330.94;;;6.84;100.00
49945;BME280;35838;49.134;9.212;2024-01-30T16:24:09;101339.47;;;6.82;100.00
49945;BME280;35838;49.134;9.212;2024-01-30T16:25:40;101337.78;;;6.82;100.00
49945;BME280;35838;49.134;9.212;2024-01-30T16:27:13;101342.94;;;6.82;100.00
49945;BME280;35838;49.134;9.212;2024-01-30T16:28:45;101341.25;;;6.84;100.00
49945;BME280;35838;49.134;9.212;2024-01-30T16:30:18;101343.03;;;6.85;100.00
49945;BME280;35838;49.134;9.212;2024-01-30T16:31:49;101338.53;;;6.80;100.00
49945;BME280;35838;49.134;9.212;2024-01-30T16:33:26;101339.41;;;6.80;100.00
49945;BME280;35838;49.134;9.212;2024-01-30T16:34:59;101341.25;;;6.84;100.00
49945;BME280;35838;49.134;9.212;2024-01-30T16:36:30;101344.59;;;6.80;100.00
49945;BME280;35838;49.134;9.212;2024-01-30T16:38:04;101340.28;;;6.81;100.00
49945;BME280;35838;49.134;9.212;2024-01-30T16:39:37;101351.50;;;6.81;100.00
49945;BME280;35838;49.134;9.212;2024-01-30T16:41:08;101348.81;;;6.78;100.00
49945;BME280;35838;49.134;9.212;2024-01-30T16:42:42;101347.13;;;6.79;100.00
49945;BME280;35838;49.134;9.212;2024-01-30T16:44:13;101344.41;;;6.76;100.00
49945;BME280;35838;49.134;9.212;2024-01-30T16:45:47;101342.72;;;6.76;100.00
49945;BME280;35838;49.134;9.212;2024-01-30T16:47:18;101343.47;;;6.73;100.00
49945;BME280;35838;49.134;9.212;2024-01-30T16:48:54;101349.63;;;6.77;100.00
49945;BME280;35838;49.134;9.212;2024-01-30T16:50:25;101346.84;;;6.71;100.00
49945;BME280;35838;49.134;9.212;2024-01-30T16:51:59;101350.03;;;6.64;100.00
49945;BME280;35838;49.134;9.212;2024-01-30T16:53:30;101343.94;;;6.62;100.00
49945;BME280;35838;49.134;9.212;2024-01-30T16:55:05;101353.66;;;6.69;100.00
49945;BME280;35838;49.134;9.212;2024-01-30T16:56:36;101355.53;;;6.73;100.00
49945;BME280;35838;49.134;9.212;2024-01-30T16:58:09;101353.94;;;6.77;100.00
49945;BME280;35838;49.134;9.212;2024-01-30T16:59:42;101353.19;;;6.81;100.00
49945;BME280;35838;49.134;9.212;2024-01-30T17:01:15;101360.16;;;6.83;100.00
49945;BME280;35838;49.134;9.212;2024-01-30T17:02:47;101358.97;;;6.73;100.00
49945;BME280;35838;49.134;9.212;2024-01-30T17:04:23;101358.16;;;6.74;100.00
49945;BME280;35838;49.134;9.212;2024-01-30T17:05:54;101366.03;;;6.79;100.00
49945;BME280;35838;49.134;9.212;2024-01-30T17:07:29;101366.91;;;6.80;100.00
49945;BME280;35838;49.134;9.212;2024-01-30T17:09:05;101359.13;;;6.78;100.00
49945;BME280;35838;49.134;9.212;2024-01-30T17:10:39;101362.50;;;6.76;100.00
49945;BME280;35838;49.134;9.212;2024-01-30T17:12:10;101373.91;;;6.82;100.00
49945;BME280;35838;49.134;9.212;2024-01-30T17:13:43;101374.81;;;6.84;100.00
49945;BME280;35838;49.134;9.212;2024-01-30T17:15:14;101371.91;;;6.75;100.00
49945;BME280;35838;49.134;9.212;2024-01-30T17:16:48;101371.16;;;6.78;100.00
49945;BME280;35838;49.134;9.212;2024-01-30T17:18:21;101375.56;;;6.80;100.00
49945;BME280;35838;49.134;9.212;2024-01-30T17:19:57;101370.59;;;6.86;100.00
49945;BME280;35838;49.134;9.212;2024-01-30T17:21:29;101378.22;;;6.83;100.00
49945;BME280;35838;49.134;9.212;2024-01-30T17:23:04;101381.66;;;6.82;100.00
49945;BME280;35838;49.134;9.212;2024-01-30T17:24:38;101378.13;;;6.80;100.00
49945;BME280;35838;49.134;9.212;2024-01-30T17:26:11;101378.94;;;6.79;100.00
49945;BME280;35838;49.134;9.212;2024-01-30T17:27:45;101377.19;;;6.78;100.00
49945;BME280;35838;49.134;9.212;2024-01-30T17:29:16;101377.19;;;6.78;100.00
49945;BME280;35838;49.134;9.212;2024-01-30T17:30:50;101381.25;;;6.71;100.00
49945;BME280;35838;49.134;9.212;2024-01-30T17:32:21;101378.94;;;6.79;100.00
49945;BME280;35838;49.134;9.212;2024-01-30T17:33:56;101385.88;;;6.80;100.00
49945;BME280;35838;49.134;9.212;2024-01-30T17:35:29;101379.88;;;6.81;100.00
49945;BME280;35838;49.134;9.212;2024-01-30T17:37:03;101386.91;;;6.85;100.00
49945;BME280;35838;49.134;9.212;2024-01-30T17:38:34;101389.13;;;6.74;100.00
49945;BME280;35838;49.134;9.212;2024-01-30T17:40:08;101385.44;;;6.68;100.00
49945;BME280;35838;49.134;9.212;2024-01-30T17:41:39;101391.53;;;6.70;100.00
49945;BME280;35838;49.134;9.212;2024-01-30T17:43:13;101382.84;;;6.68;100.00
49945;BME280;35838;49.134;9.212;2024-01-30T17:44:44;101386.56;;;6.76;100.00
49945;BME280;35838;49.134;9.212;2024-01-30T17:46:18;101392.56;;;6.75;100.00
49945;BME280;35838;49.134;9.212;2024-01-30T17:47:49;101389.75;;;6.69;100.00
49945;BME280;35838;49.134;9.212;2024-01-30T17:49:22;101388.00;;;6.68;100.00
49945;BME280;35838;49.134;9.212;2024-01-30T17:50:56;101392.34;;;6.69;100.00
49945;BME280;35838;49.134;9.212;2024-01-30T17:52:30;101388.81;;;6.67;100.00
49945;BME280;35838;49.134;9.212;2024-01-30T17:54:03;101400.91;;;6.68;100.00
49945;BME280;35838;49.134;9.212;2024-01-30T17:55:34;101390.53;;;6.66;100.00
49945;BME280;35838;49.134;9.212;2024-01-30T17:57:08;101388.00;;;6.68;100.00
49945;BME280;35838;49.134;9.212;2024-01-30T17:58:42;101391.47;;;6.68;100.00
49945;BME280;35838;49.134;9.212;2024-01-30T18:00:13;101388.75;;;6.64;100.00
49945;BME280;35838;49.134;9.212;2024-01-30T18:01:47;101386.03;;;6.61;100.00
49945;BME280;35838;49.134;9.212;2024-01-30T18:03:18;101389.59;;;6.64;100.00
49945;BME280;35838;49.134;9.212;2024-01-30T18:04:52;101390.25;;;6.58;100.00
49945;BME280;35838;49.134;9.212;2024-01-30T18:06:25;101397.00;;;6.55;100.00
49945;BME280;35838;49.134;9.212;2024-01-30T18:07:59;101400.56;;;6.58;100.00
49945;BME280;35838;49.134;9.212;2024-01-30T18:09:35;101401.47;;;6.59;100.00
49945;BME280;35838;49.134;9.212;2024-01-30T18:11:06;101405.69;;;6.57;100.00
49945;BME280;35838;49.134;9.212;2024-01-30T18:12:39;101403.97;;;6.57;100.00
49945;BME280;35838;49.134;9.212;2024-01-30T18:14:12;101413.56;;;6.60;100.00
49945;BME280;35838;49.134;9.212;2024-01-30T18:15:46;101407.28;;;6.53;100.00
49945;BME280;35838;49.134;9.212;2024-01-30T18:17:17;101405.66;;;6.55;100.00
49945;BME280;35838;49.134;9.212;2024-01-30T18:18:50;101415.97;;;6.55;100.00
49945;BME280;35838;49.134;9.212;2024-01-30T18:20:21;101413.44;;;6.57;100.00
49945;BME280;35838;49.134;9.212;2024-01-30T18:21:57;101421.13;;;6.55;100.00
49945;BME280;35838;49.134;9.212;2024-01-30T18:23:31;101417.72;;;6.56;100.00
49945;BME280;35838;49.134;9.212;2024-01-30T18:25:02;101421.13;;;6.55;100.00
49945;BME280;35838;49.134;9.212;2024-01-30T18:26:36;101425.38;;;6.55;100.00
49945;BME280;35838;49.134;9.212;2024-01-30T18:28:07;101418.47;;;6.54;100.00
49945;BME280;35838;49.134;9.212;2024-01-30T18:29:41;101424.53;;;6.54;100.00
49945;BME280;35838;49.134;9.212;2024-01-30T18:31:12;101427.91;;;6.53;100.00
49945;BME280;35838;49.134;9.212;2024-01-30T18:32:45;101427.78;;;6.50;100.00
49945;BME280;35838;49.134;9.212;2024-01-30T18:34:16;101422.53;;;6.47;100.00
49945;BME280;35838;49.134;9.212;2024-01-30T18:35:50;101430.31;;;6.49;100.00
49945;BME280;35838;49.134;9.212;2024-01-30T18:37:24;101431.19;;;6.49;100.00
49945;BME280;35838;49.134;9.212;2024-01-30T18:38:57;101428.56;;;6.48;100.00
49945;BME280;35838;49.134;9.212;2024-01-30T18:40:29;101435.47;;;6.49;100.00
49945;BME280;35838;49.134;9.212;2024-01-30T18:42:02;101433.78;;;6.49;100.00
49945;BME280;35838;49.134;9.212;2024-01-30T18:43:36;101432.91;;;6.49;100.00
49945;BME280;35838;49.134;9.212;2024-01-30T18:45:08;101430.09;;;6.42;100.00
49945;BME280;35838;49.134;9.212;2024-01-30T18:46:42;101430.84;;;6.40;100.00
49945;BME280;35838;49.134;9.212;2024-01-30T18:48:13;101438.59;;;6.40;100.00
49945;BME280;35838;49.134;9.212;2024-01-30T18:49:46;101430.84;;;6.40;100.00
49945;BME280;35838;49.134;9.212;2024-01-30T18:51:21;101439.53;;;6.42;100.00
49945;BME280;35838;49.134;9.212;2024-01-30T18:52:55;101434.59;;;6.48;100.00
49945;BME280;35838;49.134;9.212;2024-01-30T18:54:29;101439.75;;;6.48;100.00
49945;BME280;35838;49.134;9.212;2024-01-30T18:56:03;101436.34;;;6.49;100.00
49945;BME280;35838;49.134;9.212;2024-01-30T18:57:36;101429.34;;;6.45;100.00
49945;BME280;35838;49.134;9.212;2024-01-30T18:59:09;101433.72;;;6.48;100.00
49945;BME280;35838;49.134;9.212;2024-01-30T19:00:41;101439.81;;;6.50;100.00
49945;BME280;35838;49.134;9.212;2024-01-30T19:02:15;101439.75;;;6.48;100.00
49945;BME280;35838;49.134;9.212;2024-01-30T19:03:46;101437.06;;;6.45;100.00
49945;BME280;35838;49.134;9.212;2024-01-30T19:05:19;101437.31;;;6.29;100.00
49945;BME280;35838;49.134;9.212;2024-01-30T19:06:51;101440.50;;;6.21;100.00
49945;BME280;35838;49.134;9.212;2024-01-30T19:08:27;101438.72;;;6.20;100.00
49945;BME280;35838;49.134;9.212;2024-01-30T19:10:01;101442.22;;;6.22;100.00
49945;BME280;35838;49.134;9.212;2024-01-30T19:11:32;101439.66;;;6.22;100.00
49945;BME280;35838;49.134;9.212;2024-01-30T19:13:05;101443.13;;;6.23;100.00
49945;BME280;35838;49.134;9.212;2024-01-30T19:14:39;101441.53;;;6.26;100.00
49945;BME280;35838;49.134;9.212;2024-01-30T19:16:10;101437.19;;;6.25;100.00
49945;BME280;35838;49.134;9.212;2024-01-30T19:17:44;101432.97;;;6.27;100.00
49945;BME280;35838;49.134;9.212;2024-01-30T19:19:15;101433.84;;;6.28;100.00
49945;BME280;35838;49.134;9.212;2024-01-30T19:20:48;101425.13;;;6.24;100.00
49945;BME280;35838;49.134;9.212;2024-01-30T19:22:19;101425.13;;;6.24;100.00
49945;BME280;35838;49.134;9.212;2024-01-30T19:23:56;101428.50;;;6.23;100.00
49945;BME280;35838;49.134;9.212;2024-01-30T19:25:29;101428.50;;;6.23;100.00
49945;BME280;35838;49.134;9.212;2024-01-30T19:27:03;101426.00;;;6.25;100.00
49945;BME280;35838;49.134;9.212;2024-01-30T19:28:37;101433.03;;;6.29;100.00
49945;BME280;35838;49.134;9.212;2024-01-30T19:30:11;101439.09;;;6.30;100.00
49945;BME280;35838;49.134;9.212;2024-01-30T19:31:42;101443.34;;;6.29;100.00
49945;BME280;35838;49.134;9.212;2024-01-30T19:33:16;101451.84;;;6.26;100.00
49945;BME280;35838;49.134;9.212;2024-01-30T19:34:47;101456.69;;;6.19;100.00
49945;BME280;35838;49.134;9.212;2024-01-30T19:36:20;101458.34;;;6.17;100.00
49945;BME280;35838;49.134;9.212;2024-01-30T19:37:51;101450.81;;;6.21;100.00
49945;BME280;35838;49.134;9.212;2024-01-30T19:39:27;101450.91;;;6.24;100.00
49945;BME280;35838;49.134;9.212;2024-01-30T19:40:58;101457.69;;;6.22;100.00
49945;BME280;35838;49.134;9.212;2024-01-30T19:42:32;101457.69;;;6.22;100.00
49945;BME280;35838;49.134;9.212;2024-01-30T19:44:03;101464.38;;;6.17;100.00
49945;BME280;35838;49.134;9.212;2024-01-30T19:45:37;101463.63;;;6.20;100.00
49945;BME280;35838;49.134;9.212;2024-01-30T19:47:10;101463.69;;;6.21;100.00
49945;BME280;35838;49.134;9.212;2024-01-30T19:48:41;101463.63;;;6.20;100.00
49945;BME280;35838;49.134;9.212;2024-01-30T19:50:15;101465.34;;;6.19;100.00
49945;BME280;35838;49.134;9.212;2024-01-30T19:51:46;101462.66;;;6.18;100.00
49945;BME280;35838;49.134;9.212;2024-01-30T19:53:20;101469.53;;;6.17;100.00
49945;BME280;35838;49.134;9.212;2024-01-30T19:54:56;101468.50;;;6.12;100.00
49945;BME280;35838;49.134;9.212;2024-01-30T19:56:27;101471.16;;;6.15;100.00
49945;BME280;35838;49.134;9.212;2024-01-30T19:58:01;101477.22;;;6.16;100.00
49945;BME280;35838;49.134;9.212;2024-01-30T19:59:33;101470.50;;;6.19;100.00
49945;BME280;35838;49.134;9.212;2024-01-30T20:01:07;101475.69;;;6.21;100.00
49945;BME280;35838;49.134;9.212;2024-01-30T20:02:38;101470.50;;;6.19;100.00
49945;BME280;35838;49.134;9.212;2024-01-30T20:04:12;101474.06;;;6.23;100.00
49945;BME280;35838;49.134;9.212;2024-01-30T20:05:45;101475.88;;;6.25;100.00
49945;BME280;35838;49.134;9.212;2024-01-30T20:07:16;101476.81;;;6.27;100.00
49945;BME280;35838;49.134;9.212;2024-01-30T20:08:50;101479.50;;;6.31;100.00
49945;BME280;35838;49.134;9.212;2024-01-30T20:10:24;101483.78;;;6.30;100.00
49945;BME280;35838;49.134;9.212;2024-01-30T20:11:58;101481.22;;;6.30;100.00
49945;BME280;35838;49.134;9.212;2024-01-30T20:13:29;101479.44;;;6.29;100.00
49945;BME280;35838;49.134;9.212;2024-01-30T20:15:03;101478.69;;;6.32;100.00
49945;BME280;35838;49.134;9.212;2024-01-30T20:16:37;101485.38;;;6.26;100.00
49945;BME280;35838;49.134;9.212;2024-01-30T20:18:10;101482.56;;;6.20;100.00
49945;BME280;35838;49.134;9.212;2024-01-30T20:19:43;101486.13;;;6.24;100.00
49945;BME280;35838;49.134;9.212;2024-01-30T20:21:16;101488.41;;;6.16;100.00
49945;BME280;35838;49.134;9.212;2024-01-30T20:22:47;101486.41;;;6.09;100.00
49945;BME280;35838;49.134;9.212;2024-01-30T20:24:21;101485.69;;;6.13;100.00
49945;BME280;35838;49.134;9.212;2024-01-30T20:25:55;101484.88;;;6.14;100.00
49945;BME280;35838;49.134;9.212;2024-01-30T20:27:28;101490.84;;;6.13;100.00
49945;BME280;35838;49.134;9.212;2024-01-30T20:28:59;101495.19;;;6.14;100.00
49945;BME280;35838;49.134;9.212;2024-01-30T20:30:33;101483.44;;;6.21;100.00
49945;BME280;35838;49.134;9.212;2024-01-30T20:32:05;101493.78;;;6.22;100.00
49945;BME280;35838;49.134;9.212;2024-01-30T20:33:38;101496.72;;;6.09;100.00
49945;BME280;35838;49.134;9.212;2024-01-30T20:35:12;101491.75;;;6.14;100.00
49945;BME280;35838;49.134;9.212;2024-01-30T20:36:46;101498.84;;;6.19;100.00
49945;BME280;35838;49.134;9.212;2024-01-30T20:38:18;101501.53;;;6.22;100.00
49945;BME280;35838;49.134;9.212;2024-01-30T20:39:52;101505.00;;;6.23;100.00
49945;BME280;35838;49.134;9.212;2024-01-30T20:41:25;101509.44;;;6.27;100.00
49945;BME280;35838;49.134;9.212;2024-01-30T20:42:59;101512.19;;;6.32;100.00
49945;BME280;35838;49.134;9.212;2024-01-30T20:44:33;101511.38;;;6.33;100.00
49945;BME280;35838;49.134;9.212;2024-01-30T20:46:04;101496.84;;;6.35;100.00
49945;BME280;35838;49.134;9.212;2024-01-30T20:47:39;101506.22;;;6.33;100.00
49945;BME280;35838;49.134;9.212;2024-01-30T20:49:10;101513.97;;;6.33;100.00
49945;BME280;35838;49.134;9.212;2024-01-30T20:50:43;101515.03;;;6.38;100.00
49945;BME280;35838;49.134;9.212;2024-01-30T20:52:14;101511.38;;;6.33;100.00
49945;BME280;35838;49.134;9.212;2024-01-30T20:53:48;101504.41;;;6.30;100.00
49945;BME280;35838;49.134;9.212;2024-01-30T20:55:19;101506.13;;;6.30;100.00
49945;BME280;35838;49.134;9.212;2024-01-30T20:56:55;101510.53;;;6.32;100.00
49945;BME280;35838;49.134;9.212;2024-01-30T20:58:26;101509.38;;;6.25;100.00
49945;BME280;35838;49.134;9.212;2024-01-30T21:00:00;101511.66;;;6.39;100.00
49945;BME280;35838;49.134;9.212;2024-01-30T21:01:32;101509.97;;;6.41;100.00
49945;BME280;35838;49.134;9.212;2024-01-30T21:03:05;101515.97;;;6.40;100.00
49945;BME280;35838;49.134;9.212;2024-01-30T21:04:36;101509.97;;;6.41;100.00
49945;BME280;35838;49.134;9.212;2024-01-30T21:06:10;101517.91;;;6.46;100.00
49945;BME280;35838;49.134;9.212;2024-01-30T21:07:41;101509.38;;;6.48;100.00
49945;BME280;35838;49.134;9.212;2024-01-30T21:09:14;101513.63;;;6.46;100.00
49945;BME280;35838;49.134;9.212;2024-01-30T21:10:45;101506.16;;;6.54;100.00
49945;BME280;35838;49.134;9.212;2024-01-30T21:12:22;101507.94;;;6.55;100.00
49945;BME280;35838;49.134;9.212;2024-01-30T21:13:55;101502.00;;;6.57;100.00
49945;BME280;35838;49.134;9.212;2024-01-30T21:15:27;101501.28;;;6.60;100.00
49945;BME280;35838;49.134;9.212;2024-01-30T21:17:00;101511.69;;;6.63;100.00
49945;BME280;35838;49.134;9.212;2024-01-30T21:18:31;101503.03;;;6.61;100.00
49945;BME280;35838;49.134;9.212;2024-01-30T21:20:06;101505.53;;;6.59;100.00
49945;BME280;35838;49.134;9.212;2024-01-30T21:21:37;101503.94;;;6.63;100.00
49945;BME280;35838;49.134;9.212;2024-01-30T21:23:11;101506.69;;;6.68;100.00
49945;BME280;35838;49.134;9.212;2024-01-30T21:24:44;101508.25;;;6.63;100.00
49945;BME280;35838;49.134;9.212;2024-01-30T21:26:18;101500.50;;;6.63;100.00
49945;BME280;35838;49.134;9.212;2024-01-30T21:27:53;101510.69;;;6.59;100.00
49945;BME280;35838;49.134;9.212;2024-01-30T21:29:27;101505.53;;;6.59;100.00
49945;BME280;35838;49.134;9.212;2024-01-30T21:30:58;101503.78;;;6.58;100.00
49945;BME280;35838;49.134;9.212;2024-01-30T21:32:36;101502.38;;;6.44;100.00
49945;BME280;35838;49.134;9.212;2024-01-30T21:34:07;101496.41;;;6.45;100.00
49945;BME280;35838;49.134;9.212;2024-01-30T21:35:41;101496.50;;;6.48;100.00
49945;BME280;35838;49.134;9.212;2024-01-30T21:37:12;101495.63;;;6.48;100.00
49945;BME280;35838;49.134;9.212;2024-01-30T21:38:45;101505.94;;;6.48;100.00
49945;BME280;35838;49.134;9.212;2024-01-30T21:40:16;101494.03;;;6.51;100.00
49945;BME280;35838;49.134;9.212;2024-01-30T21:41:50;101492.59;;;6.58;100.00
49945;BME280;35838;49.134;9.212;2024-01-30T21:43:24;101483.94;;;6.57;100.00
49945;BME280;35838;49.134;9.212;2024-01-30T21:44:57;101495.00;;;6.53;100.00
49945;BME280;35838;49.134;9.212;2024-01-30T21:46:29;101491.59;;;6.54;100.00
49945;BME280;35838;49.134;9.212;2024-01-30T21:48:03;101495.13;;;6.56;100.00
49945;BME280;35838;49.134;9.212;2024-01-30T21:49:37;101491.50;;;6.76;100.00
49945;BME280;35838;49.134;9.212;2024-01-30T21:51:11;101499.16;;;6.97;100.00
49945;BME280;35838;49.134;9.212;2024-01-30T21:52:42;101494.03;;;6.98;100.00
49945;BME280;35838;49.134;9.212;2024-01-30T21:54:15;101491.75;;;7.06;100.00
49945;BME280;35838;49.134;9.212;2024-01-30T21:55:47;101498.38;;;7.24;100.00
49945;BME280;35838;49.134;9.212;2024-01-30T21:57:20;101496.66;;;7.24;100.00
49945;BME280;35838;49.134;9.212;2024-01-30T21:58:54;101489.09;;;7.29;100.00
49945;BME280;35838;49.134;9.212;2024-01-30T22:00:27;101490.97;;;7.33;100.00
49945;BME280;35838;49.134;9.212;2024-01-30T22:01:58;101490.63;;;7.24;100.00
49945;BME280;35838;49.134;9.212;2024-01-30T22:03:33;101490.03;;;7.31;100.00
